Time;durP1;ratioP1;P1;durP2;ratioP2;P2;SDS_P1;SDS_P2;PMS_P1;PMS_P2;Temp;Humidity;BMP_temperature;BMP_pressure;BME280_temperature;BME280_humidity;BME280_pressure;Samples;Min_cycle;Max_cycle;Signal;HPM_P1;HPM_P2
2022/03/24 00:02:22;;;;;;;;;;;8.00;80.20;;;;;;2091266;68;20068;-77
2022/03/24 00:05:11;;;;;;;;;;;8.00;83.20;;;;;;2106521;67;20316;-76
2022/03/24 00:08:08;;;;;;;;;;;7.90;83.30;;;;;;2129741;66;20051;-76
2022/03/24 00:10:50;;;;;;;;;;;7.90;82.00;;;;;;2139193;66;20616;-77
2022/03/24 00:13:36;;;;;;;;;;;7.90;84.40;;;;;;2140680;66;20047;-77
2022/03/24 00:16:19;;;;;;;;;;;7.80;86.30;;;;;;2151218;66;20601;-77
2022/03/24 00:19:01;;;;;;;;;;;7.80;86.70;;;;;;2149615;66;20498;-77
2022/03/24 00:21:57;;;;;;;;;;;7.80;90.20;;;;;;2144198;66;20068;-77
2022/03/24 00:24:42;;;;;;;;;;;7.70;88.70;;;;;;2148047;66;20082;-77
2022/03/24 00:27:23;;;;;;;;;;;7.70;87.30;;;;;;2146657;66;22554;-77
2022/03/24 00:30:06;;;;;;;;;;;7.60;90.50;;;;;;2139337;66;20071;-77
2022/03/24 00:32:48;;;;;;;;;;;7.60;90.30;;;;;;2138058;66;20126;-78
2022/03/24 00:35:31;;;;;;;;;;;8.20;90.40;;;;;;2129591;67;20517;-77
2022/03/24 00:38:16;;;;;;;;;;;7.50;90.40;;;;;;2127041;67;20136;-77
2022/03/24 00:41:01;;;;;;;;;;;7.50;91.40;;;;;;2140407;66;20086;-77
2022/03/24 00:43:48;;;;;;;;;;;7.50;91.50;;;;;;2141584;66;20416;-76
2022/03/24 00:46:31;;;;;;;;;;;7.50;91.00;;;;;;2140231;66;20180;-77
2022/03/24 00:49:12;;;;;;;;;;;7.50;91.50;;;;;;2137842;66;20106;-77
2022/03/24 00:51:54;;;;;;;;;;;7.40;91.70;;;;;;2125818;67;20216;-78
2022/03/24 00:54:36;;;;;;;;;;;7.40;91.50;;;;;;2125202;67;20174;-77
2022/03/24 00:57:17;;;;;;;;;;;7.40;88.80;;;;;;2125795;67;20214;-77
2022/03/24 01:00:00;;;;;;;;;;;7.40;90.20;;;;;;2127369;67;20144;-77
2022/03/24 01:02:45;;;;;;;;;;;7.40;90.60;;;;;;2120641;67;20193;-76
2022/03/24 01:05:29;;;;;;;;;;;7.40;85.00;;;;;;2118809;67;20750;-76
2022/03/24 01:08:10;;;;;;;;;;;7.30;90.70;;;;;;2115315;67;20816;-76
2022/03/24 01:10:52;;;;;;;;;;;7.30;90.60;;;;;;2114207;67;20061;-76
2022/03/24 01:13:35;;;;;;;;;;;7.20;90.70;;;;;;2128067;67;20510;-76
2022/03/24 01:16:19;;;;;;;;;;;7.20;91.60;;;;;;2127251;67;20048;-76
2022/03/24 01:19:04;;;;;;;;;;;7.10;90.40;;;;;;2118334;67;20245;-77
2022/03/24 01:21:45;;;;;;;;;;;7.10;91.70;;;;;;2137416;67;20067;-77
2022/03/24 01:24:27;;;;;;;;;;;7.00;91.20;;;;;;2118122;67;20048;-77
2022/03/24 01:27:10;;;;;;;;;;;6.90;91.50;;;;;;2124668;67;20123;-77
2022/03/24 01:29:59;;;;;;;;;;;7.00;90.20;;;;;;2128553;67;20055;-78
2022/03/24 01:32:45;;;;;;;;;;;6.90;91.70;;;;;;2126111;67;20148;-79
2022/03/24 01:35:29;;;;;;;;;;;6.90;91.90;;;;;;2133140;67;20173;-77
2022/03/24 01:38:11;;;;;;;;;;;6.90;92.10;;;;;;2132829;67;20184;-76
2022/03/24 01:40:52;;;;;;;;;;;6.90;92.70;;;;;;2126120;67;20048;-77
2022/03/24 01:43:34;;;;;;;;;;;7.20;91.80;;;;;;2119805;67;20108;-77
2022/03/24 01:46:23;;;;;;;;;;;6.90;92.80;;;;;;2124290;67;20595;-77
2022/03/24 01:49:08;;;;;;;;;;;6.90;92.50;;;;;;2105479;67;20155;-76
2022/03/24 01:51:52;;;;;;;;;;;6.80;92.80;;;;;;2121906;67;20056;-76
2022/03/24 01:54:35;;;;;;;;;;;6.80;91.70;;;;;;2124990;67;20181;-77
2022/03/24 01:57:21;;;;;;;;;;;6.70;93.20;;;;;;2117728;67;20127;-77
2022/03/24 02:00:05;;;;;;;;;;;7.10;92.70;;;;;;2115047;67;20070;-77
2022/03/24 02:02:48;;;;;;;;;;;6.70;95.00;;;;;;2135074;67;20205;-76
2022/03/24 02:05:34;;;;;;;;;;;6.70;95.30;;;;;;2134083;67;20136;-76
2022/03/24 02:08:15;;;;;;;;;;;6.70;93.30;;;;;;2126519;67;20177;-77
2022/03/24 02:10:57;;;;;;;;;;;6.70;93.50;;;;;;2133076;67;20494;-77
2022/03/24 02:13:39;;;;;;;;;;;6.70;94.00;;;;;;2124923;67;20166;-77
2022/03/24 02:16:19;;;;;;;;;;;6.60;94.70;;;;;;2124681;67;20593;-77
2022/03/24 02:19:10;;;;;;;;;;;6.60;95.40;;;;;;2125134;67;20568;-77
2022/03/24 02:22:40;;;;;;;;;;;6.50;95.40;;;;;;2274584;61;20578;-77
2022/03/24 02:25:27;;;;;;;;;;;6.50;97.30;;;;;;2258709;63;20048;-75
2022/03/24 02:28:10;;;;;;;;;;;6.50;97.20;;;;;;2258503;63;20229;-77
2022/03/24 02:30:51;;;;;;;;;;;6.50;97.40;;;;;;2234505;64;20140;-77
2022/03/24 02:33:33;;;;;;;;;;;6.50;96.20;;;;;;2226575;64;20184;-78
2022/03/24 02:36:16;;;;;;;;;;;6.70;97.50;;;;;;2210536;64;20507;-77
2022/03/24 02:39:05;;;;;;;;;;;6.50;97.10;;;;;;2203930;65;20279;-76
2022/03/24 02:41:52;;;;;;;;;;;6.40;96.80;;;;;;2196302;65;20059;-77
2022/03/24 02:44:36;;;;;;;;;;;6.40;97.40;;;;;;2187268;65;20633;-77
2022/03/24 02:47:17;;;;;;;;;;;6.40;97.60;;;;;;2196533;65;20042;-76
2022/03/24 02:49:59;;;;;;;;;;;6.40;97.50;;;;;;2188707;65;20114;-77
2022/03/24 02:52:41;;;;;;;;;;;6.30;98.80;;;;;;2189368;65;20146;-76
2022/03/24 02:55:22;;;;;;;;;;;6.30;97.80;;;;;;2178686;65;20074;-77
2022/03/24 02:58:03;;;;;;;;;;;6.30;98.70;;;;;;2190374;65;20594;-77
2022/03/24 03:00:45;;;;;;;;;;;6.20;97.20;;;;;;2181481;65;20244;-77
2022/03/24 03:03:26;;;;;;;;;;;6.20;97.00;;;;;;2175452;65;20064;-76
2022/03/24 03:06:09;;;;;;;;;;;6.20;97.30;;;;;;2168130;65;20685;-77
2022/03/24 03:08:53;;;;;;;;;;;6.20;97.80;;;;;;2175620;65;20758;-78
2022/03/24 03:11:34;;;;;;;;;;;6.20;97.60;;;;;;2176446;65;20084;-75
2022/03/24 03:14:19;;;;;;;;;;;6.10;98.90;;;;;;2185527;65;20079;-76
2022/03/24 03:17:18;;;;;;;;;;;6.10;99.30;;;;;;2178345;65;20621;-76
2022/03/24 03:19:59;;;;;;;;;;;6.00;99.10;;;;;;2171756;65;20226;-77
2022/03/24 03:22:40;;;;;;;;;;;6.00;99.30;;;;;;2164610;66;20251;-76
2022/03/24 03:25:22;;;;;;;;;;;6.00;99.90;;;;;;2160942;66;20062;-76
2022/03/24 03:28:07;;;;;;;;;;;6.00;99.90;;;;;;2165025;66;20070;-76
2022/03/24 03:30:50;;;;;;;;;;;5.90;99.90;;;;;;2173641;65;20076;-76
2022/03/24 03:33:32;;;;;;;;;;;5.90;99.90;;;;;;2160265;66;20584;-77
2022/03/24 03:36:13;;;;;;;;;;;5.90;99.90;;;;;;2164823;66;20234;-76
2022/03/24 03:38:55;;;;;;;;;;;5.90;99.90;;;;;;2149398;66;20456;-75
2022/03/24 03:41:39;;;;;;;;;;;5.90;99.90;;;;;;2155303;66;20569;-76
2022/03/24 03:44:23;;;;;;;;;;;5.80;99.90;;;;;;2170217;65;20231;-76
2022/03/24 03:47:06;;;;;;;;;;;5.80;99.90;;;;;;2164083;66;20230;-76
2022/03/24 03:49:48;;;;;;;;;;;5.80;99.90;;;;;;2159380;66;20123;-76
2022/03/24 03:52:30;;;;;;;;;;;5.70;99.90;;;;;;2163064;66;20259;-76
2022/03/24 03:55:13;;;;;;;;;;;5.80;99.90;;;;;;2156157;66;20200;-76
2022/03/24 03:57:57;;;;;;;;;;;5.80;99.90;;;;;;2170114;65;20529;-76
2022/03/24 04:00:55;;;;;;;;;;;5.70;99.90;;;;;;2154031;66;20407;-77
2022/03/24 04:03:38;;;;;;;;;;;5.70;99.90;;;;;;2145002;66;20244;-74
2022/03/24 04:06:20;;;;;;;;;;;5.60;99.90;;;;;;2156611;66;20177;-76
2022/03/24 04:09:06;;;;;;;;;;;5.60;99.90;;;;;;2141977;66;21541;-76
2022/03/24 04:11:48;;;;;;;;;;;5.60;99.90;;;;;;2139964;66;20071;-75
2022/03/24 04:14:29;;;;;;;;;;;5.50;99.90;;;;;;2140309;66;20278;-75
2022/03/24 04:17:11;;;;;;;;;;;5.50;99.90;;;;;;2145164;66;20114;-77
2022/03/24 04:19:53;;;;;;;;;;;5.50;99.90;;;;;;2148492;66;20628;-75
2022/03/24 04:22:35;;;;;;;;;;;5.50;99.90;;;;;;2156145;66;20424;-77
2022/03/24 04:25:20;;;;;;;;;;;5.40;99.90;;;;;;2134143;66;20548;-76
2022/03/24 04:28:03;;;;;;;;;;;5.40;99.90;;;;;;2127262;67;20233;-77
2022/03/24 04:30:48;;;;;;;;;;;5.40;99.90;;;;;;2119025;67;20072;-75
2022/03/24 04:33:31;;;;;;;;;;;5.40;99.90;;;;;;2132297;67;20337;-76
2022/03/24 04:36:16;;;;;;;;;;;5.30;99.90;;;;;;2146512;66;20244;-76
2022/03/24 04:38:58;;;;;;;;;;;5.30;99.90;;;;;;2146900;66;20229;-76
2022/03/24 04:41:41;;;;;;;;;;;5.30;99.90;;;;;;2146262;66;21077;-77
2022/03/24 04:44:24;;;;;;;;;;;5.30;99.90;;;;;;2152332;66;20757;-77
2022/03/24 04:47:10;;;;;;;;;;;5.30;99.90;;;;;;2145579;66;20263;-77
2022/03/24 04:49:55;;;;;;;;;;;5.20;99.90;;;;;;2139461;66;20047;-76
2022/03/24 04:52:36;;;;;;;;;;;5.20;99.90;;;;;;2117596;67;20076;-76
2022/03/24 04:55:17;;;;;;;;;;;5.20;99.90;;;;;;2112991;67;20609;-76
2022/03/24 04:57:59;;;;;;;;;;;5.20;99.90;;;;;;2112427;67;20116;-75
2022/03/24 05:00:43;;;;;;;;;;;5.10;99.90;;;;;;2118180;67;20639;-76
2022/03/24 05:03:25;;;;;;;;;;;5.20;99.90;;;;;;2125967;67;20193;-77
2022/03/24 05:06:06;;;;;;;;;;;5.20;99.90;;;;;;2132990;67;20533;-76
2022/03/24 05:08:49;;;;;;;;;;;5.10;99.90;;;;;;2120349;67;20117;-76
2022/03/24 05:11:31;;;;;;;;;;;5.10;99.90;;;;;;2129611;67;20273;-76
2022/03/24 05:14:12;;;;;;;;;;;5.20;99.90;;;;;;2126852;67;20665;-76
2022/03/24 05:16:55;;;;;;;;;;;5.10;99.90;;;;;;2126013;67;20137;-76
2022/03/24 05:19:44;;;;;;;;;;;5.10;99.90;;;;;;2126567;67;20625;-76
2022/03/24 05:22:28;;;;;;;;;;;5.50;99.90;;;;;;2150577;66;20097;-76
2022/03/24 05:25:11;;;;;;;;;;;5.10;99.90;;;;;;2149501;66;20601;-79
2022/03/24 05:27:56;;;;;;;;;;;5.10;99.90;;;;;;2134692;67;20056;-78
2022/03/24 05:30:38;;;;;;;;;;;5.10;99.90;;;;;;2141850;66;20271;-75
2022/03/24 05:33:20;;;;;;;;;;;5.00;99.90;;;;;;2136063;66;20140;-76
2022/03/24 05:36:05;;;;;;;;;;;5.00;99.90;;;;;;2140179;66;20192;-76
2022/03/24 05:38:48;;;;;;;;;;;5.00;99.90;;;;;;2137430;66;20103;-77
2022/03/24 05:41:36;;;;;;;;;;;5.00;99.90;;;;;;2134353;66;20072;-76
2022/03/24 05:44:17;;;;;;;;;;;5.00;99.90;;;;;;2125273;67;20223;-76
2022/03/24 05:46:59;;;;;;;;;;;5.00;99.90;;;;;;2128049;67;20102;-76
2022/03/24 05:49:40;;;;;;;;;;;5.00;99.90;;;;;;2129524;67;20122;-76
2022/03/24 05:52:22;;;;;;;;;;;5.00;99.90;;;;;;2147578;66;20131;-76
2022/03/24 05:55:05;;;;;;;;;;;5.00;99.90;;;;;;2162036;66;20135;-77
2022/03/24 05:57:47;;;;;;;;;;;5.00;99.90;;;;;;2169077;66;20053;-76
2022/03/24 06:00:28;;;;;;;;;;;5.10;99.90;;;;;;2162656;66;20680;-75
2022/03/24 06:03:10;;;;;;;;;;;5.10;99.90;;;;;;2147487;66;20261;-76
2022/03/24 06:05:51;;;;;;;;;;;5.10;99.90;;;;;;2149581;66;20646;-76
2022/03/24 06:08:33;;;;;;;;;;;5.10;99.90;;;;;;2161795;66;20251;-75
2022/03/24 06:11:17;;;;;;;;;;;5.20;99.90;;;;;;2161674;66;20552;-77
2022/03/24 06:14:01;;;;;;;;;;;5.20;99.90;;;;;;2145456;66;20071;-76
2022/03/24 06:16:43;;;;;;;;;;;5.20;99.90;;;;;;2155463;66;20134;-75
2022/03/24 06:19:25;;;;;;;;;;;5.30;99.90;;;;;;2159833;66;20061;-78
2022/03/24 06:22:07;;;;;;;;;;;5.30;99.90;;;;;;2192454;65;20136;-75
2022/03/24 06:24:43;;;;;;;;;;;5.30;99.90;;;;;;2190570;65;20138;-77
2022/03/24 06:27:19;;;;;;;;;;;5.40;99.90;;;;;;2186880;65;20122;-76
2022/03/24 06:29:55;;;;;;;;;;;5.40;99.90;;;;;;2191778;65;20238;-77
2022/03/24 06:32:32;;;;;;;;;;;5.40;99.90;;;;;;2180449;65;20540;-77
2022/03/24 06:35:11;;;;;;;;;;;5.50;99.90;;;;;;2188301;65;20141;-77
2022/03/24 06:37:51;;;;;;;;;;;5.60;99.90;;;;;;2224976;64;20040;-76
2022/03/24 06:40:44;;;;;;;;;;;5.60;99.90;;;;;;2219492;64;20585;-77
2022/03/24 06:43:20;;;;;;;;;;;5.70;99.90;;;;;;2229668;64;20201;-77
2022/03/24 06:45:57;;;;;;;;;;;5.80;99.90;;;;;;2227088;64;20063;-78
2022/03/24 06:48:47;;;;;;;;;;;5.80;99.90;;;;;;2201925;64;20070;-77
2022/03/24 06:51:23;;;;;;;;;;;5.80;99.90;;;;;;2208214;64;20533;-77
2022/03/24 06:54:14;;;;;;;;;;;5.80;99.90;;;;;;2219636;64;20106;-78
2022/03/24 06:56:50;;;;;;;;;;;6.00;99.90;;;;;;2220708;64;20879;-77
2022/03/24 06:59:22;;;;;;;;;;;6.10;99.90;;;;;;2232457;64;20583;-77
2022/03/24 07:02:06;;;;;;;;;;;6.20;99.90;;;;;;2237318;64;20076;-78
2022/03/24 07:04:58;;;;;;;;;;;6.30;99.90;;;;;;2231125;64;20110;-76
2022/03/24 07:07:34;;;;;;;;;;;6.40;99.90;;;;;;2248962;63;20322;-76
2022/03/24 07:10:24;;;;;;;;;;;6.50;99.90;;;;;;2232717;64;20064;-78
2022/03/24 07:13:02;;;;;;;;;;;6.60;99.90;;;;;;2231929;64;20055;-77
2022/03/24 07:15:40;;;;;;;;;;;6.70;99.90;;;;;;2230137;64;20133;-78
2022/03/24 07:18:30;;;;;;;;;;;6.80;99.90;;;;;;2214359;64;20068;-76
2022/03/24 07:21:07;;;;;;;;;;;6.90;99.90;;;;;;2214334;64;20720;-76
2022/03/24 07:23:45;;;;;;;;;;;7.00;99.90;;;;;;2220201;64;20093;-77
2022/03/24 07:26:28;;;;;;;;;;;7.10;99.90;;;;;;2214666;64;20689;-78
2022/03/24 07:29:13;;;;;;;;;;;7.20;99.90;;;;;;2218405;64;20208;-78
2022/03/24 07:31:59;;;;;;;;;;;7.30;99.90;;;;;;2206811;64;20264;-77
2022/03/24 07:34:42;;;;;;;;;;;7.40;99.90;;;;;;2214348;64;20110;-77
2022/03/24 07:37:31;;;;;;;;;;;7.50;99.90;;;;;;2207282;64;20331;-78
2022/03/24 07:40:18;;;;;;;;;;;7.60;99.90;;;;;;2207990;64;20230;-77
2022/03/24 07:43:02;;;;;;;;;;;7.70;99.90;;;;;;2205270;64;20191;-78
2022/03/24 07:45:43;;;;;;;;;;;7.80;99.90;;;;;;2196462;65;20202;-76
2022/03/24 07:48:25;;;;;;;;;;;7.90;99.90;;;;;;2185808;65;20070;-78
2022/03/24 07:51:10;;;;;;;;;;;8.00;99.90;;;;;;2184658;65;20140;-75
2022/03/24 07:53:54;;;;;;;;;;;8.10;99.90;;;;;;2191894;65;20666;-79
2022/03/24 07:56:37;;;;;;;;;;;8.20;99.90;;;;;;2190464;65;20204;-78
2022/03/24 07:59:21;;;;;;;;;;;8.30;99.90;;;;;;2179904;65;20282;-78
2022/03/24 08:02:06;;;;;;;;;;;8.30;99.90;;;;;;2172312;65;20065;-77
2022/03/24 08:04:48;;;;;;;;;;;8.50;99.90;;;;;;2172604;65;20686;-80
2022/03/24 08:07:30;;;;;;;;;;;8.50;99.90;;;;;;2152838;66;20081;-77
2022/03/24 08:10:12;;;;;;;;;;;8.60;99.90;;;;;;2152708;66;20284;-77
2022/03/24 08:12:54;;;;;;;;;;;8.80;99.90;;;;;;2150743;66;20066;-78
2022/03/24 08:15:37;;;;;;;;;;;8.80;99.90;;;;;;2161850;66;20226;-77
2022/03/24 08:18:22;;;;;;;;;;;9.10;99.90;;;;;;2165841;65;20167;-76
2022/03/24 08:20:59;;;;;;;;;;;9.00;99.90;;;;;;2170387;65;20065;-76
2022/03/24 08:23:36;;;;;;;;;;;9.10;99.90;;;;;;2171311;65;20194;-77
2022/03/24 08:26:12;;;;;;;;;;;9.10;99.90;;;;;;2165304;66;20069;-77
2022/03/24 08:28:49;;;;;;;;;;;9.20;99.90;;;;;;2163956;66;20161;-78
2022/03/24 08:31:45;;;;;;;;;;;9.30;99.90;;;;;;2170502;65;20554;-79
2022/03/24 08:34:21;;;;;;;;;;;9.30;99.90;;;;;;2176830;65;20178;-78
2022/03/24 08:36:57;;;;;;;;;;;9.40;99.90;;;;;;2177903;65;20521;-76
2022/03/24 08:39:48;;;;;;;;;;;9.40;99.90;;;;;;2176730;65;20075;-76
2022/03/24 08:42:27;;;;;;;;;;;9.50;99.90;;;;;;2186661;65;20074;-77
2022/03/24 08:45:18;;;;;;;;;;;9.60;99.90;;;;;;2206212;64;20045;-76
2022/03/24 08:47:54;;;;;;;;;;;9.70;99.90;;;;;;2205478;64;20094;-77
2022/03/24 08:50:30;;;;;;;;;;;9.80;99.90;;;;;;2214706;64;20340;-76
2022/03/24 08:53:10;;;;;;;;;;;9.80;99.90;;;;;;2229231;64;20076;-78
2022/03/24 08:55:40;;;;;;;;;;;9.90;99.90;;;;;;2223096;64;20166;-75
2022/03/24 08:58:18;;;;;;;;;;;9.90;99.90;;;;;;2233670;64;20065;-77
2022/03/24 09:00:55;;;;;;;;;;;10.00;99.90;;;;;;2230825;64;20216;-76
2022/03/24 09:03:33;;;;;;;;;;;10.10;99.90;;;;;;2230431;64;20093;-75
2022/03/24 09:06:09;;;;;;;;;;;10.20;99.90;;;;;;2230037;64;20170;-76
2022/03/24 09:09:00;;;;;;;;;;;10.30;99.90;;;;;;2211359;64;20233;-77
2022/03/24 09:11:37;;;;;;;;;;;10.40;99.90;;;;;;2212641;64;20072;-77
2022/03/24 09:14:16;;;;;;;;;;;10.50;99.90;;;;;;2219660;64;20221;-80
2022/03/24 09:16:52;;;;;;;;;;;10.60;99.90;;;;;;2221710;64;20059;-77
2022/03/24 09:19:43;;;;;;;;;;;10.60;99.90;;;;;;2205942;65;20319;-78
2022/03/24 09:22:24;;;;;;;;;;;10.90;99.90;;;;;;2211655;64;20048;-78
2022/03/24 09:25:07;;;;;;;;;;;10.90;99.90;;;;;;2198609;65;20709;-79
2022/03/24 09:27:48;;;;;;;;;;;11.10;99.90;;;;;;2208160;64;20135;-82
2022/03/24 09:30:31;;;;;;;;;;;11.50;99.90;;;;;;2203625;64;20464;-79
2022/03/24 09:33:17;;;;;;;;;;;11.40;99.90;;;;;;2204696;64;20223;-79
2022/03/24 09:36:16;;;;;;;;;;;;;;;;;;;;;
2022/03/24 09:38:58;;;;;;;;;;;11.60;99.90;;;;;;2172040;65;20132;-79
2022/03/24 09:41:40;;;;;;;;;;;11.80;99.30;;;;;;2183903;65;20068;-78
2022/03/24 09:44:29;;;;;;;;;;;11.90;99.10;;;;;;2177540;65;20186;-79
2022/03/24 09:47:21;;;;;;;;;;;12.10;98.40;;;;;;2168834;65;20076;-77
2022/03/24 09:50:04;;;;;;;;;;;12.30;97.80;;;;;;2162353;66;20458;-77
2022/03/24 09:52:44;;;;;;;;;;;12.40;97.60;;;;;;2163743;65;20097;-79
2022/03/24 09:55:32;;;;;;;;;;;12.50;97.10;;;;;;2160072;65;20268;-77
2022/03/24 09:58:18;;;;;;;;;;;12.70;97.60;;;;;;2172355;65;20166;-78
2022/03/24 10:01:02;;;;;;;;;;;12.80;97.80;;;;;;2168350;65;20233;-78
2022/03/24 10:04:05;;;;;;;;;;;12.90;97.70;;;;;;2166702;66;20069;-78
2022/03/24 10:07:02;;;;;;;;;;;13.10;97.70;;;;;;2155248;66;20198;-78
2022/03/24 10:09:46;;;;;;;;;;;13.20;97.50;;;;;;2175248;65;20076;-79
2022/03/24 10:12:36;;;;;;;;;;;13.40;97.50;;;;;;2178096;65;20088;-77
2022/03/24 10:15:18;;;;;;;;;;;13.50;97.20;;;;;;2189332;65;20082;-77
2022/03/24 10:18:02;;;;;;;;;;;13.60;96.90;;;;;;2193561;65;20068;-76
2022/03/24 10:20:44;;;;;;;;;;;13.80;96.10;;;;;;2199369;65;20255;-75
2022/03/24 10:23:27;;;;;;;;;;;13.90;95.50;;;;;;2190244;65;20191;-75
2022/03/24 10:26:10;;;;;;;;;;;14.00;95.70;;;;;;2179667;65;20085;-76
2022/03/24 10:28:57;;;;;;;;;;;14.10;95.40;;;;;;2174412;65;20634;-75
2022/03/24 10:31:40;;;;;;;;;;;14.30;95.70;;;;;;2157580;66;20272;-76
2022/03/24 10:34:32;;;;;;;;;;;14.50;94.40;;;;;;2171457;65;20516;-76
2022/03/24 10:37:17;;;;;;;;;;;14.60;94.80;;;;;;2172727;65;20568;-77
2022/03/24 10:39:58;;;;;;;;;;;14.80;93.70;;;;;;2163109;65;20065;-78
2022/03/24 10:42:42;;;;;;;;;;;15.00;89.20;;;;;;2181411;65;20087;-74
2022/03/24 10:45:32;;;;;;;;;;;15.30;91.30;;;;;;2167026;65;20052;-76
2022/03/24 10:48:22;;;;;;;;;;;15.50;91.30;;;;;;2160041;66;20514;-78
2022/03/24 10:51:07;;;;;;;;;;;15.80;91.40;;;;;;2171676;65;20079;-76
2022/03/24 10:53:49;;;;;;;;;;;16.20;92.50;;;;;;2182369;65;20116;-74
2022/03/24 10:56:31;;;;;;;;;;;16.50;92.50;;;;;;2184774;65;20316;-74
2022/03/24 10:59:13;;;;;;;;;;;16.80;92.70;;;;;;2165983;66;20688;-77
2022/03/24 11:01:55;;;;;;;;;;;17.20;94.10;;;;;;2162898;66;20069;-80
2022/03/24 11:04:41;;;;;;;;;;;17.50;94.10;;;;;;2163991;66;20148;-79
2022/03/24 11:07:25;;;;;;;;;;;17.90;93.60;;;;;;2154940;66;20186;-78
2022/03/24 11:10:13;;;;;;;;;;;18.30;77.70;;;;;;2146994;66;20091;-82
2022/03/24 11:12:59;;;;;;;;;;;18.70;72.20;;;;;;2148681;66;20706;-79
2022/03/24 11:15:41;;;;;;;;;;;19.10;75.60;;;;;;2148898;66;20176;-79
2022/03/24 11:18:23;;;;;;;;;;;19.50;75.50;;;;;;2141138;66;20691;-77
2022/03/24 11:21:09;;;;;;;;;;;19.90;73.10;;;;;;2146740;66;20257;-79
2022/03/24 11:23:54;;;;;;;;;;;20.20;73.60;;;;;;2139985;66;20218;-78
2022/03/24 11:26:36;;;;;;;;;;;20.70;70.80;;;;;;2132036;67;20219;-78
2022/03/24 11:29:18;;;;;;;;;;;21.10;69.80;;;;;;2127268;67;20256;-79
2022/03/24 11:31:59;;;;;;;;;;;21.60;65.00;;;;;;2148860;66;20163;-77
2022/03/24 11:34:41;;;;;;;;;;;22.00;65.90;;;;;;2148317;66;20607;-77
2022/03/24 11:37:24;;;;;;;;;;;22.40;60.90;;;;;;2148222;66;20257;-78
2022/03/24 11:40:10;;;;;;;;;;;22.80;61.30;;;;;;2162553;66;20218;-78
2022/03/24 11:42:52;;;;;;;;;;;23.20;60.10;;;;;;2163102;66;20263;-78
2022/03/24 11:45:33;;;;;;;;;;;23.50;57.60;;;;;;2160789;66;20092;-79
2022/03/24 11:48:31;;;;;;;;;;;23.90;57.90;;;;;;2166208;65;20226;-77
2022/03/24 11:51:20;;;;;;;;;;;24.30;57.30;;;;;;2175043;65;20221;-77
2022/03/24 11:54:18;;;;;;;;;;;24.60;54.80;;;;;;2171256;65;20119;-79
2022/03/24 11:57:12;;;;;;;;;;;24.80;54.20;;;;;;2163170;66;20093;-82
2022/03/24 12:00:14;;;;;;;;;;;25.00;53.00;;;;;;2176526;65;20056;-79
2022/03/24 12:02:50;;;;;;;;;;;25.20;52.50;;;;;;2169707;65;20067;-78
2022/03/24 12:05:53;;;;;;;;;;;25.40;50.10;;;;;;2174267;65;20177;-78
2022/03/24 12:08:42;;;;;;;;;;;25.60;50.60;;;;;;2188103;65;20131;-78
2022/03/24 12:11:31;;;;;;;;;;;25.90;48.70;;;;;;2212221;64;20052;-79
2022/03/24 12:14:11;;;;;;;;;;;26.10;47.90;;;;;;2220485;64;20677;-81
2022/03/24 12:16:51;;;;;;;;;;;26.40;47.10;;;;;;2223978;64;20065;-78
2022/03/24 12:19:32;;;;;;;;;;;26.70;46.20;;;;;;2236099;63;20121;-76
2022/03/24 12:22:30;;;;;;;;;;;27.00;45.20;;;;;;2247294;63;20161;-79
2022/03/24 12:25:08;;;;;;;;;;;27.10;44.40;;;;;;2250884;63;20120;-80
2022/03/24 12:28:01;;;;;;;;;;;27.50;44.70;;;;;;2243658;63;20085;-77
2022/03/24 12:30:42;;;;;;;;;;;27.80;42.90;;;;;;2237684;63;20063;-77
2022/03/24 12:33:31;;;;;;;;;;;28.10;42.50;;;;;;2244500;63;20042;-77
2022/03/24 12:36:14;;;;;;;;;;;28.60;42.10;;;;;;2243773;63;20266;-79
2022/03/24 12:39:13;;;;;;;;;;;29.10;41.40;;;;;;2242552;63;20504;-78
2022/03/24 12:42:15;;;;;;;;;;;29.30;40.30;;;;;;2245890;63;20150;-79
2022/03/24 12:44:56;;;;;;;;;;;29.40;38.70;;;;;;2235140;64;20214;-76
2022/03/24 12:47:36;;;;;;;;;;;29.50;38.90;;;;;;2255155;63;20441;-80
2022/03/24 12:50:15;;;;;;;;;;;29.80;38.70;;;;;;2253691;63;20057;-79
2022/03/24 12:53:06;;;;;;;;;;;30.30;38.50;;;;;;2262897;63;20611;-76
2022/03/24 12:55:47;;;;;;;;;;;30.90;37.60;;;;;;2240372;64;20871;-78
2022/03/24 12:58:36;;;;;;;;;;;31.30;36.80;;;;;;2238384;64;20697;-78
2022/03/24 13:01:16;;;;;;;;;;;31.60;36.50;;;;;;2229788;64;20165;-79
2022/03/24 13:04:00;;;;;;;;;;;31.90;34.70;;;;;;2218562;64;20070;-79
2022/03/24 13:06:40;;;;;;;;;;;32.20;35.70;;;;;;2216774;64;20229;-79
2022/03/24 13:09:13;;;;;;;;;;;32.40;35.40;;;;;;2219952;64;20224;-79
2022/03/24 13:12:10;;;;;;;;;;;33.00;34.10;;;;;;2229961;64;20091;-79
2022/03/24 13:14:46;;;;;;;;;;;33.30;34.00;;;;;;2229277;64;20835;-81
2022/03/24 13:17:23;;;;;;;;;;;33.60;33.90;;;;;;2217472;64;20744;-80
2022/03/24 13:20:04;;;;;;;;;;;34.00;33.90;;;;;;2214250;64;20068;-78
2022/03/24 13:22:54;;;;;;;;;;;34.70;32.80;;;;;;2226367;64;20099;-78
2022/03/24 13:25:26;;;;;;;;;;;34.90;32.60;;;;;;2224807;64;20103;-77
2022/03/24 13:28:04;;;;;;;;;;;35.10;32.90;;;;;;2236289;64;20310;-77
2022/03/24 13:30:40;;;;;;;;;;;35.20;32.40;;;;;;2231518;64;20136;-79
2022/03/24 13:33:27;;;;;;;;;;;35.10;32.20;;;;;;2223766;64;20770;-77
2022/03/24 13:36:03;;;;;;;;;;;35.30;32.30;;;;;;2229624;64;20123;-77
2022/03/24 13:38:44;;;;;;;;;;;35.70;31.90;;;;;;2231628;64;20272;-77
2022/03/24 13:41:36;;;;;;;;;;;35.70;30.60;;;;;;2244362;63;20221;-80
2022/03/24 13:44:13;;;;;;;;;;;35.50;30.90;;;;;;2250025;63;20136;-80
2022/03/24 13:46:55;;;;;;;;;;;35.50;31.10;;;;;;2245147;63;20069;-80
2022/03/24 13:49:32;;;;;;;;;;;35.80;31.00;;;;;;2247288;63;20152;-80
2022/03/24 13:52:32;;;;;;;;;;;35.80;31.80;;;;;;2247082;63;20202;-80
2022/03/24 13:55:17;;;;;;;;;;;35.80;30.60;;;;;;2245280;63;20062;-79
2022/03/24 13:57:57;;;;;;;;;;;35.50;30.10;;;;;;2244320;63;20034;-79
2022/03/24 14:00:48;;;;;;;;;;;35.20;30.10;;;;;;2242432;63;20087;-80
2022/03/24 14:03:39;;;;;;;;;;;34.70;30.30;;;;;;2252072;63;20044;-78
2022/03/24 14:06:29;;;;;;;;;;;34.20;30.00;;;;;;2244726;63;20744;-78
2022/03/24 14:09:20;;;;;;;;;;;33.70;30.30;;;;;;2228277;64;20580;-79
2022/03/24 14:12:05;;;;;;;;;;;33.50;30.60;;;;;;2212751;64;20369;-79
2022/03/24 14:14:48;;;;;;;;;;;33.30;31.00;;;;;;2198154;65;20151;-78
2022/03/24 14:17:34;;;;;;;;;;;33.20;30.70;;;;;;2185253;65;20274;-78
2022/03/24 14:20:16;;;;;;;;;;;33.40;30.90;;;;;;2189608;65;20082;-77
2022/03/24 14:22:57;;;;;;;;;;;33.20;31.00;;;;;;2183837;65;20239;-77
2022/03/24 14:25:28;;;;;;;;;;;33.10;30.60;;;;;;2189125;65;20665;-81
2022/03/24 14:27:59;;;;;;;;;;;32.80;30.80;;;;;;2190230;65;20070;-79
2022/03/24 14:30:37;;;;;;;;;;;32.60;30.90;;;;;;2190256;65;20066;-79
2022/03/24 14:33:19;;;;;;;;;;;32.30;31.10;;;;;;2189432;65;20579;-78
2022/03/24 14:36:16;;;;;;;;;;;32.10;30.90;;;;;;2190784;65;20062;-76
2022/03/24 14:39:13;;;;;;;;;;;31.70;31.30;;;;;;2166318;65;20120;-79
2022/03/24 14:41:50;;;;;;;;;;;31.30;31.20;;;;;;2172706;65;20154;-77
2022/03/24 14:44:26;;;;;;;;;;;30.90;31.00;;;;;;2176320;65;20055;-76
2022/03/24 14:47:03;;;;;;;;;;;30.70;31.60;;;;;;2176495;65;20071;-75
2022/03/24 14:49:39;;;;;;;;;;;30.40;31.20;;;;;;2182561;65;20120;-75
2022/03/24 14:52:31;;;;;;;;;;;30.20;32.10;;;;;;2173473;65;20598;-75
2022/03/24 14:55:10;;;;;;;;;;;29.90;31.90;;;;;;2206222;64;20115;-76
2022/03/24 14:57:51;;;;;;;;;;;29.80;31.80;;;;;;2216753;64;20077;-75
2022/03/24 15:00:28;;;;;;;;;;;29.40;31.60;;;;;;2220114;64;20051;-78
2022/03/24 15:03:11;;;;;;;;;;;29.00;32.30;;;;;;2220307;63;20177;-78
2022/03/24 15:05:47;;;;;;;;;;;29.10;32.30;;;;;;2241497;63;20271;-80
2022/03/24 15:08:29;;;;;;;;;;;28.70;32.00;;;;;;2240304;63;20097;-79
2022/03/24 15:10:59;;;;;;;;;;;28.00;31.80;;;;;;2237011;63;20082;-78
2022/03/24 15:13:36;;;;;;;;;;;27.10;32.20;;;;;;2242783;63;20101;-78
2022/03/24 15:16:18;;;;;;;;;;;26.20;32.70;;;;;;2244949;63;20121;-79
2022/03/24 15:19:08;;;;;;;;;;;25.80;33.50;;;;;;2244793;63;20580;-78
2022/03/24 15:21:38;;;;;;;;;;;24.90;34.20;;;;;;2236844;63;20094;-82
2022/03/24 15:24:20;;;;;;;;;;;24.50;34.10;;;;;;2229556;64;20528;-77
2022/03/24 15:27:05;;;;;;;;;;;24.10;34.30;;;;;;2213626;64;20190;-79
2022/03/24 15:29:50;;;;;;;;;;;23.50;34.70;;;;;;2191913;65;20102;-77
2022/03/24 15:32:32;;;;;;;;;;;23.30;35.30;;;;;;2190182;65;20133;-80
2022/03/24 15:35:15;;;;;;;;;;;22.90;35.30;;;;;;2193446;65;20247;-78
2022/03/24 15:38:00;;;;;;;;;;;22.60;35.80;;;;;;2190741;65;20935;-77
2022/03/24 15:40:42;;;;;;;;;;;22.30;36.40;;;;;;2181336;65;20067;-78
2022/03/24 15:43:26;;;;;;;;;;;22.50;36.70;;;;;;2181311;65;20261;-78
2022/03/24 15:46:14;;;;;;;;;;;22.80;36.20;;;;;;2165311;66;20194;-77
2022/03/24 15:48:56;;;;;;;;;;;23.00;35.80;;;;;;2155612;66;20162;-77
2022/03/24 15:51:33;;;;;;;;;;;23.50;35.50;;;;;;2154196;66;20276;-77
2022/03/24 15:54:11;;;;;;;;;;;23.70;35.40;;;;;;2154237;66;20687;-78
2022/03/24 15:56:47;;;;;;;;;;;23.70;35.50;;;;;;2153610;66;20089;-78
2022/03/24 15:59:23;;;;;;;;;;;23.70;35.00;;;;;;2178350;65;20110;-78
2022/03/24 16:02:16;;;;;;;;;;;23.60;35.10;;;;;;2178262;65;20244;-79